Terminal Aerodrome Forecast
Issued by NWS Billings, MT

Home | Current Version | Previous Version | Text Only | Print | Product List | Glossary Off
Versions: 1 2 3 4 5 6 7 8 9 10 11 12 13 14 15 16 17 18 19 20 21 22 23 24 25 26 27 28 29 30 31 32 33 34 35 36 37 38 39

000
FTUS45 KBYZ 170529
TAFMLS
TAF
KMLS 170529Z 1706/1806 30012KT 5SM -SHSN BKN025 OVC040
      TEMPO 1706/1710 33010KT 1 1/2SM -SN SCT009 BKN015 OVC025
     FM171200 VRB06KT P6SM VCSH BKN040
     FM171500 VRB05KT P6SM BKN090
     FM180200 10010KT 3SM -SN BKN025=

USA.gov is the U.S. government's official web portal to all federal, state and local government web resources and services.